Time;durP1;ratioP1;P1;durP2;ratioP2;P2;SDS_P1;SDS_P2;PMS_P1;PMS_P2;Temp;Humidity;BMP_temperature;BMP_pressure;BME280_temperature;BME280_humidity;BME280_pressure;Samples;Min_cycle;Max_cycle;Signal;HPM_P1;HPM_P2
2022/09/29 00:00:23;;;;;;;;;;;7.10;99.90;;;;;;4906464;29;20282;-72
2022/09/29 00:02:49;;;;;;;;;;;7.10;99.90;;;;;;4906116;29;20233;-72
2022/09/29 00:05:14;;;;;;;;;;;7.10;99.90;;;;;;4906803;29;19923;-72
2022/09/29 00:07:40;;;;;;;;;;;7.10;99.90;;;;;;4905797;29;19911;-73
2022/09/29 00:10:06;;;;;;;;;;;7.20;99.90;;;;;;4907372;29;20198;-72
2022/09/29 00:12:31;;;;;;;;;;;7.20;99.90;;;;;;4907158;29;20095;-72
2022/09/29 00:14:57;;;;;;;;;;;7.20;99.90;;;;;;4907201;29;19915;-73
2022/09/29 00:17:23;;;;;;;;;;;7.30;99.90;;;;;;4906248;29;19911;-73
2022/09/29 00:19:48;;;;;;;;;;;7.30;99.90;;;;;;4906828;29;20224;-73
2022/09/29 00:22:14;;;;;;;;;;;7.30;99.90;;;;;;4905946;29;19926;-73
2022/09/29 00:24:40;;;;;;;;;;;7.40;99.90;;;;;;4907036;29;19998;-73
2022/09/29 00:27:05;;;;;;;;;;;7.40;99.90;;;;;;4906680;29;19965;-73
2022/09/29 00:29:31;;;;;;;;;;;7.40;99.90;;;;;;4905914;29;19924;-73
2022/09/29 00:31:56;;;;;;;;;;;7.50;99.90;;;;;;4906432;29;19911;-72
2022/09/29 00:34:22;;;;;;;;;;;7.40;99.90;;;;;;4906705;29;20155;-73
2022/09/29 00:36:48;;;;;;;;;;;7.50;99.90;;;;;;4906595;29;20021;-73
2022/09/29 00:39:13;;;;;;;;;;;7.50;99.90;;;;;;4905878;29;19912;-73
2022/09/29 00:41:40;;;;;;;;;;;7.40;99.90;;;;;;4906906;29;19938;-72
2022/09/29 00:44:44;;;;;;;;;;;7.40;99.90;;;;;;4906891;29;19911;-73
2022/09/29 00:47:15;;;;;;;;;;;7.30;99.90;;;;;;4906350;29;19923;-73
2022/09/29 00:49:44;;;;;;;;;;;7.30;99.90;;;;;;4901345;29;19935;-73
2022/09/29 00:52:11;;;;;;;;;;;7.30;99.90;;;;;;4888133;29;19927;-73
2022/09/29 00:54:41;;;;;;;;;;;7.40;99.90;;;;;;4887074;29;19916;-73
2022/09/29 00:57:07;;;;;;;;;;;7.40;99.90;;;;;;4889465;29;20147;-73
2022/09/29 00:59:38;;;;;;;;;;;7.40;99.90;;;;;;4890398;29;19960;-73
2022/09/29 01:02:04;;;;;;;;;;;7.40;99.90;;;;;;4890315;29;19911;-73
2022/09/29 01:04:30;;;;;;;;;;;7.40;99.90;;;;;;4891103;29;19918;-73
2022/09/29 01:06:56;;;;;;;;;;;7.30;99.90;;;;;;4901363;29;19990;-73
2022/09/29 01:09:30;;;;;;;;;;;7.20;99.90;;;;;;4890168;29;20114;-73
2022/09/29 01:11:58;;;;;;;;;;;7.30;99.90;;;;;;4890209;29;20223;-73
2022/09/29 01:14:24;;;;;;;;;;;7.30;99.90;;;;;;4890218;29;19911;-73
2022/09/29 01:16:50;;;;;;;;;;;7.30;99.90;;;;;;4894296;29;19986;-73
2022/09/29 01:19:18;;;;;;;;;;;7.30;99.90;;;;;;4909782;29;19975;-73
2022/09/29 01:21:56;;;;;;;;;;;7.30;99.90;;;;;;4892793;29;19927;-73
2022/09/29 01:24:40;;;;;;;;;;;7.30;99.90;;;;;;4905062;29;19968;-73
2022/09/29 01:27:24;;;;;;;;;;;7.30;99.90;;;;;;4890626;29;20206;-73
2022/09/29 01:30:06;;;;;;;;;;;7.40;99.90;;;;;;4890966;29;20237;-73
2022/09/29 01:32:39;;;;;;;;;;;7.40;99.90;;;;;;4898615;29;20210;-73
2022/09/29 01:35:20;;;;;;;;;;;7.30;99.90;;;;;;4908597;29;19942;-73
2022/09/29 01:37:45;;;;;;;;;;;7.30;99.90;;;;;;4908065;29;20210;-73
2022/09/29 01:40:17;;;;;;;;;;;7.30;99.90;;;;;;4909607;29;19911;-73
2022/09/29 01:43:09;;;;;;;;;;;7.30;99.90;;;;;;4893169;29;19985;-73
2022/09/29 01:45:41;;;;;;;;;;;7.20;99.90;;;;;;4909341;29;19922;-73
2022/09/29 01:48:09;;;;;;;;;;;7.30;99.90;;;;;;4904149;29;20214;-73
2022/09/29 01:50:38;;;;;;;;;;;7.30;99.90;;;;;;4889264;29;20158;-73
2022/09/29 01:53:08;;;;;;;;;;;7.20;99.90;;;;;;4893461;29;19911;-73
2022/09/29 01:55:34;;;;;;;;;;;7.20;99.90;;;;;;4889403;29;19912;-73
2022/09/29 01:58:02;;;;;;;;;;;7.20;99.90;;;;;;4889138;29;19987;-73
2022/09/29 02:00:30;;;;;;;;;;;7.20;99.90;;;;;;4889297;29;20366;-73
2022/09/29 02:02:59;;;;;;;;;;;7.30;99.90;;;;;;4889290;29;19912;-73
2022/09/29 02:05:31;;;;;;;;;;;7.30;99.90;;;;;;4888931;29;19916;-73
2022/09/29 02:08:01;;;;;;;;;;;7.30;99.90;;;;;;4903481;29;19918;-73
2022/09/29 02:10:35;;;;;;;;;;;7.40;99.90;;;;;;4892652;29;19961;-73
2022/09/29 02:13:02;;;;;;;;;;;7.40;99.90;;;;;;4907783;29;19965;-73
2022/09/29 02:15:30;;;;;;;;;;;7.40;99.90;;;;;;4907712;29;19958;-73
2022/09/29 02:17:58;;;;;;;;;;;7.40;99.90;;;;;;4907356;29;19911;-72
2022/09/29 02:20:23;;;;;;;;;;;7.40;99.90;;;;;;4891788;29;19912;-73
2022/09/29 02:22:49;;;;;;;;;;;7.30;99.90;;;;;;4908561;29;19935;-73
2022/09/29 02:25:16;;;;;;;;;;;7.20;99.90;;;;;;4907608;29;19911;-73
2022/09/29 02:27:42;;;;;;;;;;;7.20;99.90;;;;;;4891823;29;19922;-73
2022/09/29 02:30:08;;;;;;;;;;;7.20;99.90;;;;;;4907552;29;19923;-72
2022/09/29 02:32:35;;;;;;;;;;;7.30;99.90;;;;;;4908784;29;19912;-73
2022/09/29 02:35:01;;;;;;;;;;;7.30;99.90;;;;;;4903394;29;19994;-72
2022/09/29 02:37:42;;;;;;;;;;;7.30;99.90;;;;;;4888354;29;19947;-73
2022/09/29 02:40:11;;;;;;;;;;;7.30;99.90;;;;;;4888803;29;19920;-73
2022/09/29 02:42:52;;;;;;;;;;;7.40;99.90;;;;;;4907758;29;20079;-73
2022/09/29 02:45:39;;;;;;;;;;;7.40;99.90;;;;;;4891540;29;19920;-73
2022/09/29 02:48:37;;;;;;;;;;;7.40;99.90;;;;;;4906907;29;19912;-73
2022/09/29 02:51:13;;;;;;;;;;;7.40;99.90;;;;;;4907356;29;19919;-73
2022/09/29 02:53:38;;;;;;;;;;;7.40;99.90;;;;;;4891154;29;19926;-73
2022/09/29 02:56:32;;;;;;;;;;;7.40;99.90;;;;;;4907775;29;19911;-73
2022/09/29 02:59:10;;;;;;;;;;;7.40;99.90;;;;;;4907209;29;19920;-73
2022/09/29 03:01:45;;;;;;;;;;;7.50;99.90;;;;;;4907090;29;19911;-73
2022/09/29 03:04:11;;;;;;;;;;;7.50;99.90;;;;;;4891809;29;19919;-73
2022/09/29 03:06:36;;;;;;;;;;;7.40;99.90;;;;;;4907676;29;19915;-73
2022/09/29 03:09:02;;;;;;;;;;;7.50;99.90;;;;;;4907103;29;19982;-73
2022/09/29 03:11:28;;;;;;;;;;;7.40;99.90;;;;;;4906776;29;19919;-73
2022/09/29 03:13:54;;;;;;;;;;;7.40;99.90;;;;;;4907909;29;20087;-73
2022/09/29 03:16:19;;;;;;;;;;;7.40;99.90;;;;;;4907656;29;20095;-73
2022/09/29 03:18:45;;;;;;;;;;;7.40;99.90;;;;;;4907502;29;19912;-73
2022/09/29 03:21:11;;;;;;;;;;;7.40;99.90;;;;;;4907932;29;20339;-73
2022/09/29 03:23:37;;;;;;;;;;;7.30;99.90;;;;;;4907933;29;19911;-73
2022/09/29 03:26:02;;;;;;;;;;;7.30;99.90;;;;;;4907673;29;19963;-73
2022/09/29 03:28:28;;;;;;;;;;;7.30;99.90;;;;;;4906799;29;19926;-73
2022/09/29 03:30:54;;;;;;;;;;;7.20;99.90;;;;;;4907861;29;20206;-73
2022/09/29 03:33:20;;;;;;;;;;;7.10;99.90;;;;;;4907776;29;19912;-73
2022/09/29 03:35:46;;;;;;;;;;;7.10;99.90;;;;;;4906603;29;19938;-72
2022/09/29 03:38:11;;;;;;;;;;;7.00;99.90;;;;;;4907330;29;20006;-73
2022/09/29 03:40:37;;;;;;;;;;;7.00;99.90;;;;;;4907181;29;19918;-73
2022/09/29 03:43:02;;;;;;;;;;;7.00;99.90;;;;;;4907516;29;19920;-72
2022/09/29 03:45:28;;;;;;;;;;;7.00;99.90;;;;;;4907241;29;19916;-73
2022/09/29 03:47:54;;;;;;;;;;;7.00;99.90;;;;;;4906580;29;19911;-73
2022/09/29 03:50:19;;;;;;;;;;;7.00;99.90;;;;;;4906470;29;19946;-72
2022/09/29 03:52:45;;;;;;;;;;;7.10;99.90;;;;;;4907543;29;19911;-72
2022/09/29 03:55:11;;;;;;;;;;;7.00;99.90;;;;;;4902568;29;19912;-73
2022/09/29 03:57:36;;;;;;;;;;;7.00;99.90;;;;;;4888432;29;20233;-73
2022/09/29 04:00:02;;;;;;;;;;;7.00;99.90;;;;;;4887644;29;19919;-73
2022/09/29 04:02:28;;;;;;;;;;;6.90;99.90;;;;;;4888681;29;19920;-72
2022/09/29 04:04:54;;;;;;;;;;;6.90;99.90;;;;;;4887589;29;19991;-73
2022/09/29 04:07:19;;;;;;;;;;;6.90;99.90;;;;;;4920577;29;19927;-73
2022/09/29 04:09:45;;;;;;;;;;;6.90;99.90;;;;;;4918951;29;19920;-73
2022/09/29 04:12:11;;;;;;;;;;;7.00;99.90;;;;;;4907467;29;19912;-73
2022/09/29 04:14:37;;;;;;;;;;;7.00;99.90;;;;;;4907719;29;19982;-73
2022/09/29 04:17:02;;;;;;;;;;;7.10;99.90;;;;;;4907127;29;19919;-73
2022/09/29 04:19:28;;;;;;;;;;;7.10;99.90;;;;;;4907830;29;20143;-74
2022/09/29 04:21:53;;;;;;;;;;;7.10;99.90;;;;;;4908232;29;19912;-72
2022/09/29 04:24:19;;;;;;;;;;;7.10;99.90;;;;;;4908856;29;19942;-72
2022/09/29 04:26:45;;;;;;;;;;;7.20;99.90;;;;;;4907642;29;19935;-73
2022/09/29 04:29:10;;;;;;;;;;;7.10;99.90;;;;;;4906455;29;19955;-74
2022/09/29 04:31:36;;;;;;;;;;;7.00;99.90;;;;;;4909391;29;19939;-73
2022/09/29 04:34:02;;;;;;;;;;;7.00;99.90;;;;;;4911075;29;19979;-73
2022/09/29 04:36:27;;;;;;;;;;;7.00;99.90;;;;;;4909145;29;19967;-73
2022/09/29 04:38:53;;;;;;;;;;;6.90;99.90;;;;;;4910703;29;19919;-72
2022/09/29 04:41:19;;;;;;;;;;;6.90;99.90;;;;;;4910565;29;19911;-73
2022/09/29 04:43:45;;;;;;;;;;;6.90;99.90;;;;;;4910645;29;19911;-73
2022/09/29 04:46:10;;;;;;;;;;;6.90;99.90;;;;;;4910254;29;19986;-73
2022/09/29 04:48:36;;;;;;;;;;;6.90;99.90;;;;;;4905695;29;19912;-72
2022/09/29 04:51:02;;;;;;;;;;;6.80;99.90;;;;;;4891856;29;20210;-73
2022/09/29 04:53:28;;;;;;;;;;;6.80;99.90;;;;;;4891739;29;19976;-73
2022/09/29 04:55:54;;;;;;;;;;;6.80;99.90;;;;;;4891332;29;20230;-73
2022/09/29 04:58:19;;;;;;;;;;;6.80;99.90;;;;;;4891474;29;20210;-73
2022/09/29 05:00:45;;;;;;;;;;;6.80;99.90;;;;;;4891662;29;20111;-73
2022/09/29 05:03:11;;;;;;;;;;;6.80;99.90;;;;;;4903176;29;20257;-73
2022/09/29 05:05:36;;;;;;;;;;;6.80;99.90;;;;;;4891741;29;20107;-73
2022/09/29 05:08:03;;;;;;;;;;;6.80;99.90;;;;;;4891180;29;19912;-73
2022/09/29 05:10:29;;;;;;;;;;;6.80;99.90;;;;;;4891445;29;20110;-73
2022/09/29 05:12:55;;;;;;;;;;;6.80;99.90;;;;;;4890296;29;19912;-72
2022/09/29 05:15:20;;;;;;;;;;;6.80;99.90;;;;;;4899091;29;20122;-72
2022/09/29 05:17:46;;;;;;;;;;;6.80;99.90;;;;;;4893053;29;19911;-73
2022/09/29 05:20:12;;;;;;;;;;;6.90;99.90;;;;;;4909960;29;20140;-73
2022/09/29 05:22:37;;;;;;;;;;;6.90;99.90;;;;;;4908836;29;19927;-73
2022/09/29 05:25:04;;;;;;;;;;;6.90;99.90;;;;;;4909820;29;19927;-72
2022/09/29 05:27:29;;;;;;;;;;;6.80;99.90;;;;;;4924097;29;19972;-73
2022/09/29 05:29:55;;;;;;;;;;;6.70;99.90;;;;;;4909510;29;19912;-72
2022/09/29 05:32:21;;;;;;;;;;;6.70;99.90;;;;;;4908682;29;19918;-72
2022/09/29 05:34:46;;;;;;;;;;;6.70;99.90;;;;;;4909723;29;19919;-73
2022/09/29 05:37:12;;;;;;;;;;;6.70;99.90;;;;;;4909243;29;19916;-74
2022/09/29 05:39:38;;;;;;;;;;;6.70;99.90;;;;;;4908524;29;19919;-73
2022/09/29 05:42:05;;;;;;;;;;;6.70;99.90;;;;;;4909326;29;19912;-73
2022/09/29 05:44:32;;;;;;;;;;;6.70;99.90;;;;;;4908897;29;19959;-73
2022/09/29 05:46:58;;;;;;;;;;;6.80;99.90;;;;;;4908981;29;20083;-73
2022/09/29 05:49:24;;;;;;;;;;;6.80;99.90;;;;;;4908732;29;19911;-73
2022/09/29 05:51:49;;;;;;;;;;;6.80;99.90;;;;;;4908154;29;19911;-73
2022/09/29 05:54:15;;;;;;;;;;;6.80;99.90;;;;;;4909191;29;19959;-73
2022/09/29 05:56:41;;;;;;;;;;;6.80;99.90;;;;;;4892228;29;19918;-74
2022/09/29 05:59:08;;;;;;;;;;;6.80;99.90;;;;;;4908940;29;19919;-73
2022/09/29 06:01:34;;;;;;;;;;;6.90;99.90;;;;;;4908394;29;19918;-73
2022/09/29 06:04:00;;;;;;;;;;;6.90;99.90;;;;;;4909052;29;19912;-73
2022/09/29 06:06:27;;;;;;;;;;;6.90;99.90;;;;;;4907586;29;19955;-73
2022/09/29 06:08:53;;;;;;;;;;;7.00;99.90;;;;;;4907800;29;19926;-74
2022/09/29 06:11:21;;;;;;;;;;;7.00;99.90;;;;;;4907873;29;19912;-74
2022/09/29 06:13:47;;;;;;;;;;;7.10;99.90;;;;;;4892242;29;19915;-74
2022/09/29 06:16:14;;;;;;;;;;;7.20;99.90;;;;;;4891677;29;19927;-74
2022/09/29 06:18:39;;;;;;;;;;;7.20;99.90;;;;;;4891328;29;19986;-79
2022/09/29 06:21:10;;;;;;;;;;;7.30;99.90;;;;;;4892150;29;19912;-78
2022/09/29 06:23:35;;;;;;;;;;;7.30;99.90;;;;;;4908189;29;19919;-76
2022/09/29 06:26:03;;;;;;;;;;;7.30;99.90;;;;;;4907346;29;19996;-76
2022/09/29 06:28:29;;;;;;;;;;;7.30;99.90;;;;;;4906379;29;19917;-77
2022/09/29 06:31:03;;;;;;;;;;;7.40;99.90;;;;;;4907584;29;19911;-77
2022/09/29 06:33:31;;;;;;;;;;;7.40;99.90;;;;;;4907453;29;19912;-77
2022/09/29 06:38:41;;;;;;;;;;;7.50;99.90;;;;;;4888563;29;19922;-77
2022/09/29 06:41:07;;;;;;;;;;;7.50;99.90;;;;;;4888670;29;19955;-76
2022/09/29 06:43:33;;;;;;;;;;;7.50;99.90;;;;;;4889810;29;19920;-76
2022/09/29 06:45:59;;;;;;;;;;;7.50;99.90;;;;;;4888337;29;19951;-77
2022/09/29 06:48:25;;;;;;;;;;;7.50;99.90;;;;;;4889667;29;20110;-77
2022/09/29 06:50:51;;;;;;;;;;;7.60;99.90;;;;;;4889453;29;19950;-77
2022/09/29 06:53:16;;;;;;;;;;;7.60;99.90;;;;;;4903457;29;20122;-78
2022/09/29 06:55:42;;;;;;;;;;;7.60;99.90;;;;;;4889557;29;20330;-77
2022/09/29 06:58:08;;;;;;;;;;;7.70;99.90;;;;;;4902907;29;19963;-78
2022/09/29 07:00:34;;;;;;;;;;;7.70;99.90;;;;;;4889402;29;19947;-77
2022/09/29 07:02:59;;;;;;;;;;;7.70;99.90;;;;;;4903888;29;19912;-77
2022/09/29 07:05:25;;;;;;;;;;;7.70;99.90;;;;;;4889312;29;19912;-77
2022/09/29 07:07:51;;;;;;;;;;;7.70;99.90;;;;;;4887227;29;19912;-78
2022/09/29 07:10:17;;;;;;;;;;;7.80;99.90;;;;;;4872786;29;19911;-77
2022/09/29 07:12:45;;;;;;;;;;;7.90;99.90;;;;;;4903858;29;19926;-78
2022/09/29 07:15:12;;;;;;;;;;;7.80;99.90;;;;;;4887604;29;20255;-77
2022/09/29 07:17:37;;;;;;;;;;;7.90;99.90;;;;;;4903058;29;20493;-76
2022/09/29 07:20:04;;;;;;;;;;;7.90;99.90;;;;;;4903658;29;19926;-76
2022/09/29 07:22:29;;;;;;;;;;;8.00;99.90;;;;;;4888948;29;20254;-73
2022/09/29 07:24:55;;;;;;;;;;;8.10;99.90;;;;;;4889047;29;19911;-72
2022/09/29 07:27:23;;;;;;;;;;;8.20;99.90;;;;;;4903135;29;19915;-73
2022/09/29 07:29:52;;;;;;;;;;;8.30;99.90;;;;;;4887812;29;20129;-73
2022/09/29 07:32:18;;;;;;;;;;;8.20;99.90;;;;;;4887735;29;19927;-77
2022/09/29 07:34:43;;;;;;;;;;;8.20;99.90;;;;;;4887493;29;19915;-79
2022/09/29 07:37:10;;;;;;;;;;;8.20;99.90;;;;;;4888570;29;19916;-79
2022/09/29 07:39:36;;;;;;;;;;;8.30;99.90;;;;;;4903264;29;19987;-79
2022/09/29 07:42:02;;;;;;;;;;;8.30;99.90;;;;;;4889047;29;19911;-79
2022/09/29 07:44:30;;;;;;;;;;;8.40;99.90;;;;;;4903331;29;19944;-79
2022/09/29 07:46:56;;;;;;;;;;;8.40;99.90;;;;;;4888526;29;19962;-79
2022/09/29 07:49:22;;;;;;;;;;;8.40;99.90;;;;;;4902434;29;19911;-79
2022/09/29 07:51:47;;;;;;;;;;;8.40;99.90;;;;;;4903151;29;19920;-79
2022/09/29 07:54:13;;;;;;;;;;;8.40;99.90;;;;;;4887843;29;19986;-79
2022/09/29 07:56:39;;;;;;;;;;;8.30;99.90;;;;;;4889073;29;19952;-78
2022/09/29 07:59:04;;;;;;;;;;;8.30;99.90;;;;;;4903360;29;19919;-79
2022/09/29 08:01:30;;;;;;;;;;;8.40;99.90;;;;;;4902473;29;19919;-79
2022/09/29 08:03:56;;;;;;;;;;;8.40;99.90;;;;;;4888692;29;19919;-78
2022/09/29 08:06:22;;;;;;;;;;;8.50;99.90;;;;;;4907237;29;19922;-77
2022/09/29 08:08:48;;;;;;;;;;;8.60;99.90;;;;;;4910274;29;19923;-78
2022/09/29 08:11:16;;;;;;;;;;;8.70;99.90;;;;;;4909875;29;20266;-78
2022/09/29 08:13:41;;;;;;;;;;;8.80;99.90;;;;;;4910091;29;20198;-78
2022/09/29 08:16:09;;;;;;;;;;;8.90;99.90;;;;;;4894269;29;19919;-76
2022/09/29 08:18:36;;;;;;;;;;;8.90;99.90;;;;;;4910473;29;20142;-76
2022/09/29 08:21:01;;;;;;;;;;;9.00;99.90;;;;;;4878716;29;19955;-76
2022/09/29 08:23:27;;;;;;;;;;;9.20;99.90;;;;;;4909919;29;20151;-76
2022/09/29 08:26:07;;;;;;;;;;;9.30;99.90;;;;;;4909717;29;19923;-76
2022/09/29 08:28:34;;;;;;;;;;;9.40;99.90;;;;;;4905639;29;19920;-76
2022/09/29 08:31:04;;;;;;;;;;;9.40;99.90;;;;;;4891012;29;19916;-76
2022/09/29 08:33:29;;;;;;;;;;;9.50;99.90;;;;;;4875379;29;19946;-77
2022/09/29 08:35:57;;;;;;;;;;;9.60;99.90;;;;;;4894473;29;20118;-77
2022/09/29 08:38:23;;;;;;;;;;;9.60;99.90;;;;;;4910408;29;19938;-77
2022/09/29 08:40:49;;;;;;;;;;;9.70;99.90;;;;;;4909280;29;20364;-77
2022/09/29 08:43:37;;;;;;;;;;;9.80;99.90;;;;;;4909305;29;19991;-78
2022/09/29 08:46:05;;;;;;;;;;;10.00;99.90;;;;;;4909369;29;19919;-77
2022/09/29 08:48:34;;;;;;;;;;;10.10;99.90;;;;;;4910422;29;19911;-77
2022/09/29 08:51:20;;;;;;;;;;;10.10;99.90;;;;;;4893966;29;19911;-77
2022/09/29 08:53:46;;;;;;;;;;;10.20;99.90;;;;;;4894868;29;20240;-78
2022/09/29 08:56:14;;;;;;;;;;;10.20;99.90;;;;;;4893134;29;20142;-78
2022/09/29 08:58:40;;;;;;;;;;;10.20;99.90;;;;;;4893710;29;19920;-78
2022/09/29 09:01:30;;;;;;;;;;;10.30;99.90;;;;;;4889450;29;20215;-78
2022/09/29 09:04:27;;;;;;;;;;;10.30;99.90;;;;;;4891478;29;19919;-77
2022/09/29 09:07:15;;;;;;;;;;;10.40;99.90;;;;;;4890175;29;20024;-78
2022/09/29 09:10:06;;;;;;;;;;;10.40;99.90;;;;;;4895411;29;20221;-78
2022/09/29 09:12:56;;;;;;;;;;;10.50;99.90;;;;;;4909091;29;20214;-78
2022/09/29 09:15:44;;;;;;;;;;;10.70;99.90;;;;;;4908844;29;19915;-78
2022/09/29 09:18:23;;;;;;;;;;;10.80;99.90;;;;;;4908085;29;19988;-78
2022/09/29 09:20:54;;;;;;;;;;;10.90;99.90;;;;;;4908014;29;19943;-78
2022/09/29 09:23:28;;;;;;;;;;;11.00;99.90;;;;;;4908696;29;19912;-79
2022/09/29 09:25:54;;;;;;;;;;;11.20;99.90;;;;;;4908653;29;20202;-78
2022/09/29 09:28:23;;;;;;;;;;;11.20;99.90;;;;;;4877227;29;19918;-78
2022/09/29 09:30:54;;;;;;;;;;;11.30;99.90;;;;;;4892646;29;19911;-78
2022/09/29 09:33:25;;;;;;;;;;;11.40;99.90;;;;;;4909828;29;19911;-78
2022/09/29 09:35:52;;;;;;;;;;;11.40;99.90;;;;;;4908327;29;20245;-77
2022/09/29 09:38:24;;;;;;;;;;;11.50;99.90;;;;;;4908238;29;19924;-78
2022/09/29 09:40:52;;;;;;;;;;;11.50;99.90;;;;;;4893119;29;19919;-77
2022/09/29 09:43:23;;;;;;;;;;;11.60;99.90;;;;;;4892576;29;19993;-78
2022/09/29 09:46:01;;;;;;;;;;;11.60;99.90;;;;;;4908344;29;19954;-77
2022/09/29 09:48:55;;;;;;;;;;;11.80;99.90;;;;;;4889186;29;20114;-78
2022/09/29 09:51:39;;;;;;;;;;;11.90;99.90;;;;;;4889624;29;19919;-77
2022/09/29 09:54:14;;;;;;;;;;;11.90;99.90;;;;;;4890634;29;19912;-78
2022/09/29 09:57:01;;;;;;;;;;;11.90;99.90;;;;;;4889113;29;19912;-78
2022/09/29 09:59:57;;;;;;;;;;;12.00;99.90;;;;;;4890478;29;19919;-78
2022/09/29 10:02:23;;;;;;;;;;;12.10;99.90;;;;;;4890955;29;20108;-77
2022/09/29 10:04:52;;;;;;;;;;;12.20;99.90;;;;;;4897874;29;19936;-78
2022/09/29 10:07:23;;;;;;;;;;;12.30;99.90;;;;;;4893372;29;19947;-78
2022/09/29 10:09:49;;;;;;;;;;;12.60;99.90;;;;;;4894164;29;19991;-77
2022/09/29 10:12:19;;;;;;;;;;;12.90;99.90;;;;;;4893705;29;19978;-78
2022/09/29 10:14:58;;;;;;;;;;;13.00;99.90;;;;;;4908662;29;19912;-75
2022/09/29 10:17:26;;;;;;;;;;;13.20;99.90;;;;;;4892165;29;20147;-76
2022/09/29 10:19:51;;;;;;;;;;;13.40;99.90;;;;;;4892138;29;19958;-75
2022/09/29 10:22:17;;;;;;;;;;;13.60;99.90;;;;;;4908169;29;19911;-76
2022/09/29 10:24:43;;;;;;;;;;;13.70;99.90;;;;;;4891817;29;19982;-76
2022/09/29 10:27:09;;;;;;;;;;;14.00;99.90;;;;;;4908284;29;19915;-75
2022/09/29 10:29:40;;;;;;;;;;;14.10;99.90;;;;;;4906705;29;19982;-76
2022/09/29 10:32:12;;;;;;;;;;;14.40;99.90;;;;;;4907533;29;19911;-76
2022/09/29 10:34:40;;;;;;;;;;;14.50;99.90;;;;;;4892361;29;20007;-76
2022/09/29 10:37:24;;;;;;;;;;;14.60;99.90;;;;;;4903311;29;19960;-76
2022/09/29 10:39:50;;;;;;;;;;;14.60;99.90;;;;;;4888437;29;20198;-76
2022/09/29 10:42:26;;;;;;;;;;;14.60;99.90;;;;;;4888610;29;19975;-76
2022/09/29 10:45:12;;;;;;;;;;;14.60;99.90;;;;;;4889330;29;19967;-76
2022/09/29 10:47:38;;;;;;;;;;;14.40;99.90;;;;;;4888994;29;19923;-76
2022/09/29 10:50:21;;;;;;;;;;;14.40;99.90;;;;;;4888548;29;19983;-76
2022/09/29 10:52:57;;;;;;;;;;;14.30;99.90;;;;;;4889250;29;20091;-76
2022/09/29 10:55:33;;;;;;;;;;;14.30;99.90;;;;;;4888367;29;19920;-76
2022/09/29 10:58:00;;;;;;;;;;;14.30;99.90;;;;;;4888046;29;19912;-76
2022/09/29 11:00:29;;;;;;;;;;;14.30;99.90;;;;;;4888295;29;19927;-76
2022/09/29 11:03:18;;;;;;;;;;;14.40;99.90;;;;;;4889377;29;19912;-76
2022/09/29 11:05:52;;;;;;;;;;;14.50;99.90;;;;;;4891863;29;19927;-76
2022/09/29 11:08:20;;;;;;;;;;;14.50;99.90;;;;;;4890804;29;19962;-77
2022/09/29 11:10:46;;;;;;;;;;;14.40;99.90;;;;;;4906888;29;20001;-77
2022/09/29 11:13:16;;;;;;;;;;;14.30;99.90;;;;;;4906837;29;19919;-77
2022/09/29 11:15:41;;;;;;;;;;;14.30;99.90;;;;;;4901502;29;19915;-76
2022/09/29 11:18:20;;;;;;;;;;;14.40;99.90;;;;;;4887534;29;20011;-77
2022/09/29 11:20:48;;;;;;;;;;;14.40;99.90;;;;;;4892570;29;19911;-76
2022/09/29 11:23:37;;;;;;;;;;;14.40;99.90;;;;;;4887479;29;20046;-76
2022/09/29 11:26:15;;;;;;;;;;;14.50;99.90;;;;;;4887589;29;19979;-77
2022/09/29 11:28:44;;;;;;;;;;;14.60;99.90;;;;;;4887893;29;19912;-77
2022/09/29 11:31:35;;;;;;;;;;;14.70;99.90;;;;;;4887777;29;19915;-76
2022/09/29 11:34:38;;;;;;;;;;;14.70;99.90;;;;;;4903552;29;19922;-76
2022/09/29 11:37:13;;;;;;;;;;;14.80;99.90;;;;;;4888478;29;19919;-76
2022/09/29 11:39:47;;;;;;;;;;;14.90;99.90;;;;;;4872539;29;19935;-76
2022/09/29 11:42:40;;;;;;;;;;;14.90;99.90;;;;;;4895545;29;19919;-76
2022/09/29 11:45:17;;;;;;;;;;;15.00;99.90;;;;;;4905645;29;20223;-76
2022/09/29 11:48:04;;;;;;;;;;;15.20;99.90;;;;;;4907154;29;19957;-76
2022/09/29 11:50:45;;;;;;;;;;;15.30;99.90;;;;;;4890572;29;19950;-77
2022/09/29 11:53:31;;;;;;;;;;;15.30;99.90;;;;;;4905948;29;20275;-77
2022/09/29 11:56:18;;;;;;;;;;;15.20;99.90;;;;;;4906178;29;19912;-77
2022/09/29 11:58:59;;;;;;;;;;;15.10;99.90;;;;;;4906335;29;19912;-77
2022/09/29 12:01:41;;;;;;;;;;;15.00;99.90;;;;;;4907250;29;19933;-77
2022/09/29 12:04:16;;;;;;;;;;;14.80;99.90;;;;;;4906081;29;20294;-77
2022/09/29 12:06:53;;;;;;;;;;;14.70;99.90;;;;;;4902986;29;19922;-77
2022/09/29 12:09:27;;;;;;;;;;;14.60;99.90;;;;;;4887207;29;19919;-76
2022/09/29 12:12:23;;;;;;;;;;;14.60;99.90;;;;;;4893084;29;19926;-77
2022/09/29 12:15:07;;;;;;;;;;;14.60;99.90;;;;;;4902165;29;19919;-76
2022/09/29 12:17:36;;;;;;;;;;;14.70;99.90;;;;;;4897966;29;19919;-77
2022/09/29 12:20:24;;;;;;;;;;;14.70;99.90;;;;;;4902826;29;19912;-76
2022/09/29 12:22:52;;;;;;;;;;;14.70;99.90;;;;;;4893405;29;20263;-77
2022/09/29 12:25:26;;;;;;;;;;;14.70;99.90;;;;;;4901108;29;19968;-75
2022/09/29 12:27:54;;;;;;;;;;;14.70;99.90;;;;;;4888067;29;20187;-75
2022/09/29 12:30:36;;;;;;;;;;;14.80;99.90;;;;;;4887184;29;20122;-76
2022/09/29 12:33:41;;;;;;;;;;;14.80;99.90;;;;;;4916296;29;19966;-78
2022/09/29 12:36:44;;;;;;;;;;;14.80;99.90;;;;;;4925313;29;19918;-76
2022/09/29 12:39:32;;;;;;;;;;;14.80;99.90;;;;;;4913708;29;19915;-80
2022/09/29 12:42:13;;;;;;;;;;;14.80;99.90;;;;;;4907648;29;19978;-78
2022/09/29 12:44:43;;;;;;;;;;;14.80;99.90;;;;;;4905660;29;19919;-78
2022/09/29 12:47:21;;;;;;;;;;;14.80;99.90;;;;;;4889063;29;19960;-79
2022/09/29 12:50:01;;;;;;;;;;;14.80;99.90;;;;;;4905505;29;19942;-75
2022/09/29 12:52:31;;;;;;;;;;;14.70;99.90;;;;;;4889871;29;19912;-74
2022/09/29 12:54:59;;;;;;;;;;;14.70;99.90;;;;;;4889982;29;20258;-74
2022/09/29 12:57:37;;;;;;;;;;;14.70;99.90;;;;;;4889760;29;20410;-74
2022/09/29 13:00:08;;;;;;;;;;;14.70;99.90;;;;;;4874912;29;19923;-77
2022/09/29 13:03:01;;;;;;;;;;;14.70;99.90;;;;;;4891548;29;19958;-77
2022/09/29 13:06:04;;;;;;;;;;;14.80;99.90;;;;;;4910049;29;19919;-77
2022/09/29 13:09:08;;;;;;;;;;;14.80;99.90;;;;;;4909912;29;19923;-78
2022/09/29 13:11:58;;;;;;;;;;;14.70;99.90;;;;;;4907739;29;19926;-77
2022/09/29 13:14:40;;;;;;;;;;;14.70;99.90;;;;;;4908366;29;19919;-77
2022/09/29 13:17:45;;;;;;;;;;;14.60;99.90;;;;;;4906778;29;19958;-78
2022/09/29 13:20:41;;;;;;;;;;;14.70;99.90;;;;;;4909263;29;19986;-77
2022/09/29 13:23:25;;;;;;;;;;;14.70;99.90;;;;;;4909461;29;19916;-77
2022/09/29 13:26:09;;;;;;;;;;;14.60;99.90;;;;;;4909612;29;19983;-73
2022/09/29 13:28:40;;;;;;;;;;;14.60;99.90;;;;;;4908846;29;19959;-78
2022/09/29 13:31:10;;;;;;;;;;;14.60;99.90;;;;;;4893206;29;19984;-77
2022/09/29 13:33:36;;;;;;;;;;;14.40;99.90;;;;;;4892713;29;20221;-75
2022/09/29 13:36:02;;;;;;;;;;;14.40;99.90;;;;;;4909120;29;19912;-74
2022/09/29 13:38:36;;;;;;;;;;;14.30;99.90;;;;;;4908138;29;20222;-75
2022/09/29 13:41:12;;;;;;;;;;;14.20;99.90;;;;;;4905282;29;20115;-74
2022/09/29 13:43:50;;;;;;;;;;;14.20;99.90;;;;;;4889972;29;19926;-76
2022/09/29 13:46:29;;;;;;;;;;;14.10;99.90;;;;;;4890040;29;19923;-80
2022/09/29 13:49:07;;;;;;;;;;;14.10;99.90;;;;;;4901794;29;20236;-76
2022/09/29 13:51:45;;;;;;;;;;;14.00;99.90;;;;;;4889638;29;20222;-74
2022/09/29 13:54:32;;;;;;;;;;;13.90;99.90;;;;;;4890582;29;19912;-86
2022/09/29 13:56:59;;;;;;;;;;;13.70;99.90;;;;;;4902711;29;19918;-79
2022/09/29 13:59:25;;;;;;;;;;;13.60;99.90;;;;;;4892652;29;19911;-81
2022/09/29 14:01:51;;;;;;;;;;;13.40;99.90;;;;;;4893150;29;19923;-81
2022/09/29 14:04:32;;;;;;;;;;;13.30;99.90;;;;;;4897724;29;19959;-81
2022/09/29 14:06:58;;;;;;;;;;;13.20;99.90;;;;;;4912395;29;19926;-81
2022/09/29 14:09:30;;;;;;;;;;;13.10;99.90;;;;;;4896438;29;19920;-81
2022/09/29 14:11:56;;;;;;;;;;;13.00;99.90;;;;;;4895896;29;19918;-82
2022/09/29 14:14:41;;;;;;;;;;;12.90;99.90;;;;;;4894756;29;19912;-82
2022/09/29 14:17:30;;;;;;;;;;;12.90;99.90;;;;;;4879380;29;20167;-81
2022/09/29 14:20:17;;;;;;;;;;;12.80;99.90;;;;;;4911052;29;20095;-82
2022/09/29 14:22:43;;;;;;;;;;;12.80;99.90;;;;;;4899445;29;19926;-81
2022/09/29 14:25:12;;;;;;;;;;;12.90;99.90;;;;;;4889909;29;19912;-76
2022/09/29 14:27:57;;;;;;;;;;;12.80;99.90;;;;;;4896014;29;20222;-75
2022/09/29 14:30:33;;;;;;;;;;;12.80;99.90;;;;;;4908672;29;19926;-77
2022/09/29 14:33:22;;;;;;;;;;;12.90;99.90;;;;;;4908641;29;20241;-76
2022/09/29 14:35:57;;;;;;;;;;;12.80;99.90;;;;;;4903658;29;19919;-77
2022/09/29 14:38:31;;;;;;;;;;;12.80;99.90;;;;;;4887965;29;19951;-76
2022/09/29 14:41:23;;;;;;;;;;;12.80;99.90;;;;;;4888723;29;19919;-75
2022/09/29 14:44:05;;;;;;;;;;;12.70;99.90;;;;;;4888832;29;19911;-75
2022/09/29 14:53:16;;;;;;;;;;;12.60;99.90;;;;;;4888534;29;19931;-73
2022/09/29 14:56:00;;;;;;;;;;;12.60;99.90;;;;;;4889445;29;20152;-73
2022/09/29 14:59:04;;;;;;;;;;;12.60;99.90;;;;;;4888092;29;19916;-73